createdAt,value
2022-12-18T00:01:24.884Z,95928.34
2022-12-18T00:03:53.168Z,95927.84
2022-12-18T00:06:21.338Z,95926.34
2022-12-18T00:08:48.919Z,95934.78
2022-12-18T00:11:21.641Z,95928.88
2022-12-18T00:13:49.543Z,95935.00
2022-12-18T00:16:19.455Z,95933.34
2022-12-18T00:18:46.165Z,95936.00
2022-12-18T00:21:13.824Z,95946.59
2022-12-18T00:23:43.415Z,95940.78
2022-12-18T00:26:36.474Z,95939.59
2022-12-18T00:29:06.937Z,95942.75
2022-12-18T00:31:34.699Z,95941.41
2022-12-18T00:34:01.893Z,95940.56
2022-12-18T00:36:32.201Z,95939.91
2022-12-18T00:39:01.236Z,95938.56
2022-12-18T00:41:28.965Z,95943.63
2022-12-18T00:43:56.565Z,95946.75
2022-12-18T00:46:23.156Z,95943.50
2022-12-18T00:48:49.778Z,95938.34
2022-12-18T00:51:16.385Z,95934.41
2022-12-18T00:53:42.984Z,95933.75
2022-12-18T00:56:09.644Z,95946.88
2022-12-18T00:58:37.652Z,95939.50
2022-12-18T01:01:08.202Z,95955.91
2022-12-18T01:03:34.971Z,95948.44
2022-12-18T01:06:10.465Z,95952.84
2022-12-18T01:08:37.258Z,95957.94
2022-12-18T01:11:14.478Z,95962.84
2022-12-18T01:13:41.482Z,95961.72
2022-12-18T01:16:09.659Z,95967.44
2022-12-18T01:18:36.891Z,95974.16
2022-12-18T01:21:08.729Z,95968.63
2022-12-18T01:23:36.584Z,95966.19
2022-12-18T01:26:26.271Z,95955.91
2022-12-18T01:28:54.756Z,95974.91
2022-12-18T01:31:28.584Z,95987.84
2022-12-18T01:33:56.796Z,96000.72
2022-12-18T01:36:27.348Z,95995.00
2022-12-18T01:38:55.230Z,96010.47
2022-12-18T01:41:24.720Z,96015.88
2022-12-18T01:43:58.964Z,96021.47
2022-12-18T01:46:27.870Z,96012.97
2022-12-18T01:49:03.121Z,96017.50
2022-12-18T01:51:31.611Z,96026.28
2022-12-18T01:54:00.262Z,96025.28
2022-12-18T01:56:27.209Z,96023.78
2022-12-18T01:59:01.981Z,96022.38
2022-12-18T02:01:32.507Z,96023.63
2022-12-18T02:04:26.645Z,96020.72
2022-12-18T02:07:25.789Z,96031.19
2022-12-18T02:09:59.949Z,96030.63
2022-12-18T02:12:42.816Z,96044.72
2022-12-18T02:15:28.004Z,96042.47
2022-12-18T02:18:15.419Z,96041.81
2022-12-18T02:20:54.332Z,96048.97
2022-12-18T02:23:46.701Z,96044.56
2022-12-18T02:26:38.689Z,96041.66
2022-12-18T02:29:24.994Z,96043.88
2022-12-18T02:31:59.156Z,96047.47
2022-12-18T02:34:30.881Z,96052.16
2022-12-18T02:37:03.237Z,96047.09
2022-12-18T02:39:33.343Z,96045.31
2022-12-18T02:42:01.239Z,96038.25
2022-12-18T02:44:27.836Z,96049.69
2022-12-18T02:46:55.081Z,96053.31
2022-12-18T02:49:21.624Z,96042.63
2022-12-18T02:52:02.648Z,96047.69
2022-12-18T02:54:44.013Z,96046.28
2022-12-18T02:57:51.388Z,96056.41
2022-12-18T03:00:45.028Z,96050.97
2022-12-18T03:03:14.985Z,96053.91
2022-12-18T03:05:49.002Z,96049.31
2022-12-18T03:08:22.533Z,96050.50
2022-12-18T03:11:10.719Z,96060.38
2022-12-18T03:13:59.789Z,96066.19
2022-12-18T03:16:32.166Z,96066.75
2022-12-18T03:19:15.032Z,96069.00
2022-12-18T03:21:50.361Z,96069.97
2022-12-18T03:24:19.811Z,96070.19
2022-12-18T03:26:53.962Z,96056.59
2022-12-18T03:29:30.765Z,96060.34
2022-12-18T03:32:06.972Z,96055.38
2022-12-18T03:34:37.742Z,96061.78
2022-12-18T03:37:06.104Z,96059.69
2022-12-18T03:39:33.666Z,96060.91
2022-12-18T03:42:16.952Z,96062.28
2022-12-18T03:45:08.948Z,96058.16
2022-12-18T03:47:54.017Z,96061.75
2022-12-18T03:50:38.209Z,96067.25
2022-12-18T03:53:23.880Z,96055.69
2022-12-18T03:55:52.920Z,96061.31
2022-12-18T03:58:25.608Z,96072.19
2022-12-18T04:00:57.369Z,96068.34
2022-12-18T04:03:26.929Z,96064.38
2022-12-18T04:05:56.543Z,96059.81
2022-12-18T04:08:25.689Z,96068.31
2022-12-18T04:10:52.658Z,96062.47
2022-12-18T04:13:39.982Z,96063.84
2022-12-18T04:16:28.493Z,96059.88
2022-12-18T04:18:55.403Z,96064.44
2022-12-18T04:21:22.073Z,96067.78
2022-12-18T04:23:50.701Z,96064.38
2022-12-18T04:26:17.453Z,96064.47
2022-12-18T04:28:44.123Z,96063.75
2022-12-18T04:31:10.927Z,96074.06
2022-12-18T04:33:37.994Z,96073.47
2022-12-18T04:36:05.488Z,96068.81
2022-12-18T04:38:32.235Z,96075.56
2022-12-18T04:40:59.300Z,96071.75
2022-12-18T04:43:27.166Z,96087.38
2022-12-18T04:45:53.946Z,96093.56
2022-12-18T04:48:21.579Z,96090.66
2022-12-18T04:50:48.658Z,96090.78
2022-12-18T04:53:15.283Z,96087.06
2022-12-18T04:55:41.913Z,96093.34
2022-12-18T04:58:08.539Z,96090.84
2022-12-18T05:00:36.418Z,96095.75
2022-12-18T05:03:03.886Z,96093.13
2022-12-18T05:05:31.849Z,96093.66
2022-12-18T05:07:58.684Z,96093.88
2022-12-18T05:10:25.336Z,96097.00
2022-12-18T05:12:51.943Z,96100.47
2022-12-18T05:15:18.546Z,96103.16
2022-12-18T05:17:45.124Z,96105.81
2022-12-18T05:20:11.730Z,96099.34
2022-12-18T05:22:38.395Z,96109.13
2022-12-18T05:25:05.406Z,96108.84
2022-12-18T05:27:31.995Z,96101.97
2022-12-18T05:29:58.617Z,96108.91
2022-12-18T05:32:25.252Z,96114.94
2022-12-18T05:34:51.853Z,96121.38
2022-12-18T05:37:18.441Z,96110.56
2022-12-18T05:39:45.196Z,96123.03
2022-12-18T05:42:11.850Z,96108.72
2022-12-18T05:44:38.497Z,96116.75
2022-12-18T05:47:05.271Z,96115.06
2022-12-18T05:49:31.910Z,96114.88
2022-12-18T05:51:58.568Z,96119.94
2022-12-18T05:54:25.164Z,96127.47
2022-12-18T05:56:51.776Z,96132.06
2022-12-18T05:59:18.461Z,96130.19
2022-12-18T06:01:45.201Z,96132.31
2022-12-18T06:04:11.964Z,96131.91
2022-12-18T06:06:38.673Z,96127.81
2022-12-18T06:09:05.727Z,96134.31
2022-12-18T06:11:33.078Z,96129.69
2022-12-18T06:14:00.290Z,96128.28
2022-12-18T06:16:29.231Z,96137.28
2022-12-18T06:19:02.676Z,96132.75
2022-12-18T06:21:29.997Z,96132.06
2022-12-18T06:23:56.901Z,96139.06
2022-12-18T06:26:28.089Z,96137.13
2022-12-18T06:28:55.429Z,96141.50
2022-12-18T06:31:22.078Z,96149.41
2022-12-18T06:33:48.738Z,96151.78
2022-12-18T06:36:15.369Z,96163.03
2022-12-18T06:38:43.825Z,96160.13
2022-12-18T06:41:11.528Z,96169.97
2022-12-18T06:43:38.893Z,96172.50
2022-12-18T06:46:06.717Z,96167.94
2022-12-18T06:48:34.160Z,96176.84
2022-12-18T06:51:01.265Z,96182.81
2022-12-18T06:53:28.429Z,96186.53
2022-12-18T06:56:09.469Z,96190.84
2022-12-18T06:58:36.861Z,96188.63
2022-12-18T07:01:06.524Z,96195.00
2022-12-18T07:03:33.407Z,96205.97
2022-12-18T07:06:00.092Z,96205.94
2022-12-18T07:08:27.090Z,96202.22
2022-12-18T07:10:56.300Z,96206.88
2022-12-18T07:13:23.484Z,96204.75
2022-12-18T07:15:50.760Z,96204.97
2022-12-18T07:18:17.409Z,96207.16
2022-12-18T07:20:44.004Z,96219.84
2022-12-18T07:23:10.631Z,96221.41
2022-12-18T07:25:38.096Z,96217.56
2022-12-18T07:28:05.301Z,96216.94
2022-12-18T07:30:32.216Z,96220.16
2022-12-18T07:32:58.849Z,96221.34
2022-12-18T07:35:25.646Z,96222.13
2022-12-18T07:37:52.331Z,96225.22
2022-12-18T07:40:19.061Z,96223.03
2022-12-18T07:42:45.758Z,96231.72
2022-12-18T07:45:12.392Z,96236.34
2022-12-18T07:47:39.050Z,96231.44
2022-12-18T07:50:06.561Z,96226.94
2022-12-18T07:52:33.221Z,96225.25
2022-12-18T07:55:00.056Z,96237.53
2022-12-18T07:57:49.369Z,96233.75
2022-12-18T08:00:13.955Z,96229.28
2022-12-18T08:02:40.713Z,96232.47
2022-12-18T08:05:09.336Z,96237.97
2022-12-18T08:07:35.935Z,96236.47
2022-12-18T08:10:02.681Z,96246.88
2022-12-18T08:12:30.139Z,96248.59
2022-12-18T08:14:56.729Z,96241.19
2022-12-18T08:17:23.339Z,96240.25
2022-12-18T08:19:50.226Z,96239.38
2022-12-18T08:22:16.922Z,96242.03
2022-12-18T08:24:43.766Z,96229.72
2022-12-18T08:27:28.980Z,96229.53
2022-12-18T08:29:56.934Z,96232.78
2022-12-18T08:32:24.054Z,96227.19
2022-12-18T08:34:50.764Z,96227.72
2022-12-18T08:37:17.369Z,96227.97
2022-12-18T08:39:45.081Z,96221.63
2022-12-18T08:42:11.680Z,96222.63
2022-12-18T08:44:38.332Z,96215.56
2022-12-18T08:47:06.351Z,96228.28
2022-12-18T08:49:33.800Z,96218.34
2022-12-18T08:52:00.469Z,96226.25
2022-12-18T08:54:27.437Z,96225.66
2022-12-18T08:56:54.081Z,96225.97
2022-12-18T08:59:20.834Z,96225.19
2022-12-18T09:01:48.674Z,96229.19
2022-12-18T09:04:15.930Z,96229.97
2022-12-18T09:06:42.523Z,96229.16
2022-12-18T09:09:10.645Z,96234.38
2022-12-18T09:11:37.270Z,96237.09
2022-12-18T09:14:04.119Z,96241.69
2022-12-18T09:16:33.120Z,96232.13
2022-12-18T09:19:00.316Z,96234.84
2022-12-18T09:21:29.696Z,96241.84
2022-12-18T09:23:57.059Z,96239.16
2022-12-18T09:26:25.971Z,96245.59
2022-12-18T09:28:52.855Z,96245.81
2022-12-18T09:31:23.023Z,96249.91
2022-12-18T09:33:49.649Z,96237.97
2022-12-18T09:36:18.640Z,96237.94
2022-12-18T09:38:45.752Z,96234.38
2022-12-18T09:41:36.935Z,96233.59
2022-12-18T09:44:19.463Z,96242.41
2022-12-18T09:46:59.036Z,96238.25
2022-12-18T09:49:31.604Z,96243.28
2022-12-18T09:52:00.786Z,96246.06
2022-12-18T09:54:36.563Z,96240.00
2022-12-18T09:57:03.462Z,96237.56
2022-12-18T09:59:39.890Z,96240.97
2022-12-18T10:02:21.795Z,96244.56
2022-12-18T10:05:04.746Z,96237.13
2022-12-18T10:07:51.641Z,96244.56
2022-12-18T10:10:24.474Z,96243.97
2022-12-18T10:13:21.776Z,96236.31
2022-12-18T10:16:28.331Z,96242.06
2022-12-18T10:19:15.973Z,96245.94
2022-12-18T10:21:58.729Z,96243.53
2022-12-18T10:24:43.279Z,96241.72
2022-12-18T10:27:25.160Z,96238.59
2022-12-18T10:29:52.911Z,96224.03
2022-12-18T10:32:29.213Z,96224.41
2022-12-18T10:35:00.834Z,96231.59
2022-12-18T10:37:30.374Z,96221.28
2022-12-18T10:40:21.903Z,96216.38
2022-12-18T10:43:27.533Z,96224.59
2022-12-18T10:46:16.905Z,96224.75
2022-12-18T10:48:49.368Z,96226.72
2022-12-18T10:51:27.127Z,96227.66
2022-12-18T10:54:07.593Z,96231.72
2022-12-18T10:56:37.722Z,96222.13
2022-12-18T10:59:10.379Z,96237.34
2022-12-18T11:01:52.669Z,96229.34
2022-12-18T11:04:32.260Z,96222.84
2022-12-18T11:07:00.218Z,96227.38
2022-12-18T11:09:32.513Z,96220.25
2022-12-18T11:12:06.842Z,96220.56
2022-12-18T11:14:46.814Z,96221.53
2022-12-18T11:17:33.142Z,96215.44
2022-12-18T11:20:07.678Z,96216.38
2022-12-18T11:22:38.506Z,96215.75
2022-12-18T11:25:33.429Z,96215.53
2022-12-18T11:28:37.909Z,96218.28
2022-12-18T11:31:24.899Z,96222.69
2022-12-18T11:34:26.843Z,96220.94
2022-12-18T11:36:46.800Z,96222.72
2022-12-18T11:39:28.698Z,96216.53
2022-12-18T11:42:20.468Z,96214.25
2022-12-18T11:45:01.939Z,96217.22
2022-12-18T11:47:44.659Z,96201.09
2022-12-18T11:50:24.489Z,96206.06
2022-12-18T11:52:56.564Z,96201.31
2022-12-18T11:55:46.315Z,96205.06
2022-12-18T11:58:48.792Z,96186.63
2022-12-18T12:01:44.922Z,96176.44
2022-12-18T12:04:28.299Z,96168.75
2022-12-18T12:07:35.379Z,96171.03
2022-12-18T12:10:27.165Z,96167.06
2022-12-18T12:13:11.602Z,96158.06
2022-12-18T12:15:56.575Z,96156.56
2022-12-18T12:18:35.492Z,96158.72
2022-12-18T12:21:08.172Z,96164.78
2022-12-18T12:23:40.975Z,96161.81
2022-12-18T12:26:24.146Z,96151.19
2022-12-18T12:29:16.611Z,96142.53
2022-12-18T12:31:59.461Z,96155.13
2022-12-18T12:34:42.825Z,96142.19
2022-12-18T12:37:24.418Z,96142.19
2022-12-18T12:39:55.396Z,96134.47
2022-12-18T12:42:39.636Z,96138.25
2022-12-18T12:45:14.783Z,96139.44
2022-12-18T12:47:45.459Z,96134.66
2022-12-18T12:50:19.987Z,96129.94
2022-12-18T12:52:56.628Z,96124.47
2022-12-18T12:55:27.649Z,96130.16
2022-12-18T12:58:02.684Z,96135.91
2022-12-18T13:00:42.413Z,96133.63
2022-12-18T13:03:33.929Z,96124.53
2022-12-18T13:06:30.685Z,96131.44
2022-12-18T13:09:01.233Z,96130.44
2022-12-18T13:11:46.895Z,96120.34
2022-12-18T13:14:24.249Z,96109.91
2022-12-18T13:16:52.413Z,96108.97
2022-12-18T13:19:26.512Z,96111.00
2022-12-18T13:21:56.294Z,96117.13
2022-12-18T13:24:31.374Z,96113.81
2022-12-18T13:26:58.114Z,96119.25
2022-12-18T13:29:43.143Z,96116.88
2022-12-18T13:32:23.485Z,96109.91
2022-12-18T13:35:19.094Z,96106.81
2022-12-18T13:37:55.496Z,96103.72
2022-12-18T13:40:47.867Z,96107.13
2022-12-18T13:43:20.282Z,96104.88
2022-12-18T13:46:03.155Z,96113.03
2022-12-18T13:48:35.341Z,96115.00
2022-12-18T13:51:01.953Z,96112.28
2022-12-18T13:53:34.021Z,96110.44
2022-12-18T13:56:01.086Z,96114.03
2022-12-18T13:58:27.891Z,96101.91
2022-12-18T14:00:55.136Z,96107.47
2022-12-18T14:03:26.028Z,96104.06
2022-12-18T14:06:01.147Z,96104.41
2022-12-18T14:08:36.003Z,96103.44
2022-12-18T14:11:06.476Z,96102.41
2022-12-18T14:13:40.615Z,96108.47
2022-12-18T14:16:12.250Z,96105.03
2022-12-18T14:18:47.640Z,96103.47
2022-12-18T14:21:21.891Z,96109.41
2022-12-18T14:23:48.944Z,96108.00
2022-12-18T14:26:25.886Z,96102.84
2022-12-18T14:28:52.613Z,96108.56
2022-12-18T14:31:25.893Z,96114.38
2022-12-18T14:33:53.289Z,96113.38
2022-12-18T14:36:27.526Z,96121.25
2022-12-18T14:38:59.531Z,96120.44
2022-12-18T14:41:27.553Z,96128.09
2022-12-18T14:43:55.561Z,96118.25
2022-12-18T14:46:29.151Z,96120.84
2022-12-18T14:48:57.313Z,96120.34
2022-12-18T14:51:27.316Z,96123.19
2022-12-18T14:54:02.796Z,96125.94
2022-12-18T14:56:36.335Z,96118.56
2022-12-18T14:59:24.174Z,96118.81
2022-12-18T15:02:10.344Z,96113.50
2022-12-18T15:04:42.076Z,96116.31
2022-12-18T15:07:15.622Z,96116.16
2022-12-18T15:10:05.148Z,96114.31
2022-12-18T15:12:39.868Z,96117.97
2022-12-18T15:15:35.626Z,96116.31
2022-12-18T15:18:06.114Z,96116.47
2022-12-18T15:20:40.593Z,96124.31
2022-12-18T15:23:15.690Z,96135.91
2022-12-18T15:25:42.665Z,96134.97
2022-12-18T15:28:30.216Z,96140.88
2022-12-18T15:31:15.015Z,96136.28
2022-12-18T15:33:53.341Z,96132.03
2022-12-18T15:36:26.422Z,96133.31
2022-12-18T15:39:04.632Z,96140.75
2022-12-18T15:41:35.744Z,96138.25
2022-12-18T15:44:04.251Z,96123.81
2022-12-18T15:46:31.163Z,96127.09
2022-12-18T15:49:02.189Z,96128.41
2022-12-18T15:51:34.703Z,96135.53
2022-12-18T15:54:05.053Z,96141.22
2022-12-18T15:56:32.824Z,96137.44
2022-12-18T15:59:01.188Z,96136.06
2022-12-18T16:01:31.910Z,96138.16
2022-12-18T16:03:58.685Z,96133.97
2022-12-18T16:06:36.403Z,96143.19
2022-12-18T16:09:12.382Z,96143.38
2022-12-18T16:11:43.979Z,96147.06
2022-12-18T16:14:25.068Z,96140.22
2022-12-18T16:17:01.986Z,96144.31
2022-12-18T16:19:29.947Z,96130.09
2022-12-18T16:21:58.527Z,96142.53
2022-12-18T16:24:27.766Z,96133.34
2022-12-18T16:26:55.382Z,96133.69
2022-12-18T16:29:22.252Z,96127.28
2022-12-18T16:31:48.881Z,96121.41
2022-12-18T16:34:28.760Z,96127.81
2022-12-18T16:37:00.284Z,96135.63
2022-12-18T16:39:31.808Z,96136.78
2022-12-18T16:41:58.963Z,96143.50
2022-12-18T16:44:26.904Z,96150.69
2022-12-18T16:46:53.553Z,96143.66
2022-12-18T16:49:20.542Z,96151.88
2022-12-18T16:51:47.522Z,96147.44
2022-12-18T16:54:18.864Z,96140.22
2022-12-18T16:56:46.415Z,96149.53
2022-12-18T16:59:13.130Z,96152.69
2022-12-18T17:01:39.922Z,96147.75
2022-12-18T17:04:08.175Z,96148.56
2022-12-18T17:06:40.523Z,96144.97
2022-12-18T17:09:11.680Z,96140.19
2022-12-18T17:11:38.290Z,96146.09
2022-12-18T17:14:10.500Z,96143.50
2022-12-18T17:16:37.262Z,96136.81
2022-12-18T17:19:05.469Z,96129.16
2022-12-18T17:21:32.331Z,96123.34
2022-12-18T17:24:02.092Z,96125.50
2022-12-18T17:26:29.944Z,96129.50
2022-12-18T17:28:58.296Z,96121.53
2022-12-18T17:31:27.799Z,96117.78
2022-12-18T17:33:54.936Z,96122.22
2022-12-18T17:36:22.939Z,96135.47
2022-12-18T17:38:55.004Z,96143.50
2022-12-18T17:41:22.521Z,96149.06
2022-12-18T17:44:00.610Z,96164.44
2022-12-18T17:46:29.333Z,96159.88
2022-12-18T17:48:57.313Z,96166.13
2022-12-18T17:51:23.970Z,96164.13
2022-12-18T17:53:50.614Z,96164.13
2022-12-18T17:56:20.163Z,96158.91
2022-12-18T17:58:47.239Z,96161.03
2022-12-18T18:01:17.606Z,96157.06
2022-12-18T18:03:45.562Z,96140.84
2022-12-18T18:06:15.132Z,96137.75
2022-12-18T18:08:42.100Z,96130.78
2022-12-18T18:11:16.633Z,96128.69
2022-12-18T18:13:47.222Z,96139.38
2022-12-18T18:16:14.170Z,96143.16
2022-12-18T18:18:40.840Z,96157.28
2022-12-18T18:21:08.899Z,96150.41
2022-12-18T18:23:36.191Z,96145.63
2022-12-18T18:26:07.524Z,96161.03
2022-12-18T18:28:34.976Z,96152.66
2022-12-18T18:31:05.798Z,96151.69
2022-12-18T18:33:33.231Z,96144.16
2022-12-18T18:36:00.227Z,96153.66
2022-12-18T18:38:27.194Z,96152.34
2022-12-18T18:41:02.000Z,96159.91
2022-12-18T18:43:29.786Z,96161.03
2022-12-18T18:46:01.277Z,96153.63
2022-12-18T18:48:33.170Z,96144.31
2022-12-18T18:51:08.118Z,96141.56
2022-12-18T18:53:39.648Z,96141.88
2022-12-18T18:56:37.729Z,96144.66
2022-12-18T18:58:57.286Z,96138.59
2022-12-18T19:01:25.419Z,96146.44
2022-12-18T19:03:53.582Z,96160.56
2022-12-18T19:06:26.567Z,96167.41
2022-12-18T19:08:55.349Z,96178.41
2022-12-18T19:11:23.920Z,96175.78
2022-12-18T19:13:50.520Z,96171.72
2022-12-18T19:16:17.185Z,96167.97
2022-12-18T19:18:44.551Z,96170.81
2022-12-18T19:21:11.672Z,96161.03
2022-12-18T19:23:38.318Z,96147.72
2022-12-18T19:28:54.276Z,96143.47
2022-12-18T19:31:25.440Z,96138.13
2022-12-18T19:33:53.774Z,96147.78
2022-12-18T19:36:26.813Z,96141.69
2022-12-18T19:38:57.002Z,96143.19
2022-12-18T19:41:25.529Z,96138.06
2022-12-18T19:43:53.657Z,96141.84
2022-12-18T19:46:23.023Z,96154.63
2022-12-18T19:48:50.488Z,96154.81
2022-12-18T19:51:20.679Z,96152.97
2022-12-18T19:53:47.329Z,96145.56
2022-12-18T19:56:18.599Z,96144.28
2022-12-18T19:58:45.976Z,96155.03
2022-12-18T20:01:17.947Z,96156.84
2022-12-18T20:03:48.494Z,96156.47
2022-12-18T20:06:35.032Z,96164.81
2022-12-18T20:09:06.451Z,96164.78
2022-12-18T20:11:41.397Z,96160.84
2022-12-18T20:14:14.073Z,96148.44
2022-12-18T20:16:41.964Z,96140.72
2022-12-18T20:19:12.858Z,96134.22
2022-12-18T20:21:40.416Z,96140.22
2022-12-18T20:24:07.847Z,96131.53
2022-12-18T20:26:34.625Z,96121.38
2022-12-18T20:29:01.269Z,96131.03
2022-12-18T20:31:27.926Z,96129.28
2022-12-18T20:34:00.337Z,96128.91
2022-12-18T20:36:29.511Z,96124.81
2022-12-18T20:38:59.268Z,96117.00
2022-12-18T20:41:36.426Z,96123.69
2022-12-18T20:44:08.550Z,96121.84
2022-12-18T20:46:50.130Z,96122.44
2022-12-18T20:49:16.826Z,96129.00
2022-12-18T20:51:43.525Z,96131.50
2022-12-18T20:54:11.940Z,96125.84
2022-12-18T20:56:38.946Z,96128.22
2022-12-18T20:59:05.682Z,96127.38
2022-12-18T21:01:32.663Z,96113.44
2022-12-18T21:03:59.585Z,96113.03
2022-12-18T21:06:26.385Z,96112.50
2022-12-18T21:08:53.016Z,96116.50
2022-12-18T21:11:19.586Z,96114.09
2022-12-18T21:13:46.679Z,96118.59
2022-12-18T21:16:13.315Z,96118.16
2022-12-18T21:18:40.091Z,96110.63
2022-12-18T21:21:06.809Z,96111.44
2022-12-18T21:23:33.540Z,96103.72
2022-12-18T21:26:16.044Z,96109.97
2022-12-18T21:28:42.955Z,96107.78
2022-12-18T21:31:09.643Z,96110.44
2022-12-18T21:33:38.713Z,96108.22
2022-12-18T21:36:07.009Z,96114.34
2022-12-18T21:38:33.845Z,96117.56
2022-12-18T21:41:00.417Z,96114.03
2022-12-18T21:43:27.225Z,96107.22
2022-12-18T21:45:53.911Z,96110.31
2022-12-18T21:48:20.581Z,96108.00
2022-12-18T21:50:47.176Z,96112.34
2022-12-18T21:53:13.791Z,96104.22
2022-12-18T21:55:40.377Z,96111.13
2022-12-18T21:58:07.132Z,96110.09
2022-12-18T22:00:33.741Z,96108.78
2022-12-18T22:03:17.275Z,96113.63
2022-12-18T22:05:45.850Z,96108.97
2022-12-18T22:08:14.151Z,96113.88
2022-12-18T22:10:41.177Z,96106.41
2022-12-18T22:13:07.857Z,96114.59
2022-12-18T22:15:34.589Z,96114.34
2022-12-18T22:18:01.243Z,96115.16
2022-12-18T22:20:29.274Z,96108.75
2022-12-18T22:22:56.869Z,96121.56
2022-12-18T22:25:23.531Z,96117.34
2022-12-18T22:27:50.180Z,96110.44
2022-12-18T22:30:16.858Z,96109.97
2022-12-18T22:32:43.535Z,96107.16
2022-12-18T22:35:15.630Z,96118.28
2022-12-18T22:37:42.686Z,96115.22
2022-12-18T22:40:23.888Z,96120.91
2022-12-18T22:42:52.647Z,96119.34
2022-12-18T22:45:20.149Z,96132.41
2022-12-18T22:47:46.765Z,96130.66
2022-12-18T22:50:14.004Z,96124.94
2022-12-18T22:52:40.865Z,96137.59
2022-12-18T22:55:07.810Z,96136.44
2022-12-18T22:57:34.580Z,96146.88
2022-12-18T23:00:02.171Z,96146.47
2022-12-18T23:02:29.040Z,96137.78
2022-12-18T23:04:55.975Z,96130.44
2022-12-18T23:07:22.577Z,96129.16
2022-12-18T23:09:50.519Z,96133.28
2022-12-18T23:12:19.080Z,96124.69
2022-12-18T23:14:46.000Z,96125.13
2022-12-18T23:17:13.007Z,96126.72
2022-12-18T23:19:44.039Z,96123.97
2022-12-18T23:22:13.861Z,96108.72
2022-12-18T23:24:40.510Z,96117.66
2022-12-18T23:27:11.368Z,96126.84
2022-12-18T23:29:39.406Z,96122.03
2022-12-18T23:32:06.152Z,96122.97
2022-12-18T23:34:32.768Z,96121.59
2022-12-18T23:36:59.880Z,96109.91
2022-12-18T23:39:29.304Z,96113.50
2022-12-18T23:42:00.336Z,96130.72
2022-12-18T23:44:27.692Z,96129.44
2022-12-18T23:46:55.217Z,96130.41
2022-12-18T23:49:22.351Z,96123.84
2022-12-18T23:51:49.424Z,96118.41
2022-12-18T23:54:16.051Z,96119.94
2022-12-18T23:56:42.913Z,96112.03
2022-12-18T23:59:09.718Z,96107.03
